Time;durP1;ratioP1;P1;durP2;ratioP2;P2;SDS_P1;SDS_P2;PMS_P1;PMS_P2;Temp;Humidity;BMP_temperature;BMP_pressure;BME280_temperature;BME280_humidity;BME280_pressure;Samples;Min_cycle;Max_cycle;Signal;HPM_P1;HPM_P2
2023/05/26 00:00:07;;;;;;;72.90;10.40;;;12.10;99.90;;;;;;4881724;29;20182;-80
2023/05/26 00:02:36;;;;;;;75.83;9.30;;;12.10;99.90;;;;;;4881991;29;20926;-80
2023/05/26 00:05:06;;;;;;;71.40;11.18;;;12.10;99.90;;;;;;4881276;29;20447;-80
2023/05/26 00:07:32;;;;;;;75.73;12.10;;;12.00;99.90;;;;;;4881807;29;20250;-80
2023/05/26 00:09:58;;;;;;;72.80;12.43;;;11.90;99.90;;;;;;4882375;29;20407;-80
2023/05/26 00:12:24;;;;;;;74.67;12.90;;;11.90;99.90;;;;;;4880308;29;20517;-79
2023/05/26 00:14:50;;;;;;;72.37;12.43;;;11.80;99.90;;;;;;4880563;29;20181;-79
2023/05/26 00:17:16;;;;;;;76.40;12.77;;;11.80;99.90;;;;;;4880729;29;20470;-79
2023/05/26 00:19:43;;;;;;;70.85;11.70;;;11.90;99.90;;;;;;4880522;29;20419;-79
2023/05/26 00:22:10;;;;;;;73.73;13.67;;;12.00;99.90;;;;;;4880439;29;20265;-79
2023/05/26 00:24:36;;;;;;;74.27;13.53;;;12.10;99.90;;;;;;4881636;29;20458;-79
2023/05/26 00:27:02;;;;;;;71.77;12.23;;;12.10;99.90;;;;;;4881608;29;20483;-80
2023/05/26 00:29:27;;;;;;;76.57;11.80;;;12.10;99.90;;;;;;4881771;29;20171;-80
2023/05/26 00:31:53;;;;;;;75.97;13.60;;;12.20;99.90;;;;;;4881824;29;20224;-80
2023/05/26 00:34:19;;;;;;;76.60;12.87;;;12.40;99.90;;;;;;4881511;29;20175;-80
2023/05/26 00:36:46;;;;;;;82.57;14.57;;;12.50;99.90;;;;;;4881375;29;20198;-80
2023/05/26 00:39:15;;;;;;;79.80;13.77;;;12.70;99.90;;;;;;4881993;29;20450;-80
2023/05/26 00:41:40;;;;;;;77.63;13.27;;;12.70;99.90;;;;;;4881264;29;20443;-79
2023/05/26 00:44:06;;;;;;;75.97;11.60;;;12.80;99.90;;;;;;4881886;29;20414;-80
2023/05/26 00:46:32;;;;;;;73.13;8.50;;;12.90;99.90;;;;;;4882947;29;20194;-79
2023/05/26 00:48:58;;;;;;;77.67;9.90;;;12.90;96.30;;;;;;4885257;29;20494;-80
2023/05/26 00:51:23;;;;;;;77.97;9.87;;;13.00;94.90;;;;;;4884988;29;20166;-80
2023/05/26 00:53:50;;;;;;;86.50;9.87;;;13.10;91.60;;;;;;4885419;29;20653;-79
2023/05/26 00:56:16;;;;;;;77.87;9.33;;;13.00;91.50;;;;;;4884589;29;20194;-79
2023/05/26 00:58:42;;;;;;;75.73;8.97;;;13.00;88.80;;;;;;4884801;29;20506;-79
2023/05/26 01:01:09;;;;;;;79.30;9.50;;;13.00;83.90;;;;;;4884785;29;20462;-79
2023/05/26 01:03:37;;;;;;;81.33;8.40;;;13.00;84.90;;;;;;4885017;29;20414;-79
2023/05/26 01:06:06;;;;;;;79.13;8.90;;;13.00;83.30;;;;;;4884856;29;20461;-79
2023/05/26 01:08:32;;;;;;;82.80;9.47;;;13.00;80.60;;;;;;4883521;29;20450;-79
2023/05/26 01:11:06;;;;;;;85.73;8.37;;;13.00;77.90;;;;;;4885435;29;20415;-79
2023/05/26 01:13:49;;;;;;;78.27;7.37;;;13.00;76.70;;;;;;4885064;29;20863;-79
2023/05/26 01:16:17;;;;;;;76.53;7.53;;;12.90;77.20;;;;;;4884963;29;20426;-79
2023/05/26 01:18:55;;;;;;;80.87;7.83;;;13.00;71.60;;;;;;4884684;29;20407;-79
2023/05/26 01:21:27;;;;;;;88.20;8.37;;;12.90;70.60;;;;;;4884859;29;20384;-79
2023/05/26 01:24:28;;;;;;;81.40;8.20;;;13.00;67.00;;;;;;4885000;29;20391;-79
2023/05/26 01:26:59;;;;;;;82.90;9.03;;;12.90;62.00;;;;;;4884841;29;20461;-79
2023/05/26 01:29:29;;;;;;;80.40;7.30;;;12.80;68.00;;;;;;4884927;29;20407;-80
2023/05/26 01:32:05;;;;;;;79.27;7.60;;;12.80;68.90;;;;;;4884677;29;20418;-80
2023/05/26 01:34:30;;;;;;;92.50;8.47;;;12.80;68.20;;;;;;4883145;29;20415;-79
2023/05/26 01:36:56;;;;;;;76.70;7.93;;;12.80;65.10;;;;;;4882886;29;20486;-79
2023/05/26 01:39:22;;;;;;;76.43;6.50;;;12.70;63.80;;;;;;4884427;29;20226;-80
2023/05/26 01:41:52;;;;;;;76.67;6.23;;;12.70;65.00;;;;;;4884651;29;20208;-79
2023/05/26 01:44:48;;;;;;;80.25;7.13;;;12.70;57.10;;;;;;4884116;29;20258;-80
2023/05/26 01:47:15;;;;;;;79.03;7.50;;;12.70;55.40;;;;;;4876149;29;20257;-79
2023/05/26 01:49:45;;;;;;;91.63;7.60;;;12.70;57.30;;;;;;4884219;29;20413;-79
2023/05/26 01:52:12;;;;;;;84.53;8.17;;;12.70;55.50;;;;;;4884558;29;20384;-79
2023/05/26 01:54:46;;;;;;;82.20;8.50;;;12.70;56.50;;;;;;4883777;29;20413;-79
2023/05/26 01:57:13;;;;;;;74.83;6.93;;;12.60;61.40;;;;;;4883398;29;20483;-79
2023/05/26 01:59:39;;;;;;;89.57;6.37;;;12.50;57.90;;;;;;4883721;29;20426;-79
2023/05/26 02:02:05;;;;;;;82.70;7.50;;;12.50;56.60;;;;;;4882822;29;20423;-79
2023/05/26 02:04:31;;;;;;;73.33;7.17;;;12.50;54.10;;;;;;4883734;29;20403;-79
2023/05/26 02:06:57;;;;;;;79.27;7.13;;;12.50;56.90;;;;;;4882756;29;20338;-79
2023/05/26 02:09:23;;;;;;;81.47;7.63;;;12.40;62.10;;;;;;4867269;29;20178;-79
2023/05/26 02:11:48;;;;;;;80.67;7.20;;;12.40;64.90;;;;;;4883893;29;20903;-79
2023/05/26 02:14:14;;;;;;;82.70;7.57;;;12.40;58.90;;;;;;4884069;29;20415;-79
2023/05/26 02:16:40;;;;;;;83.83;7.67;;;12.40;60.00;;;;;;4883815;29;20269;-79
2023/05/26 02:19:08;;;;;;;76.57;6.17;;;12.40;55.30;;;;;;4883565;29;20214;-79
2023/05/26 02:21:35;;;;;;;78.00;6.20;;;12.40;61.10;;;;;;4883423;29;20186;-79
2023/05/26 02:24:01;;;;;;;85.07;8.50;;;12.40;57.20;;;;;;4882473;29;20421;-79
2023/05/26 02:26:27;;;;;;;79.13;6.33;;;12.40;56.60;;;;;;4883070;29;20530;-79
2023/05/26 02:28:55;;;;;;;79.13;6.80;;;12.40;56.70;;;;;;4883531;29;20198;-79
2023/05/26 02:31:22;;;;;;;83.90;6.77;;;12.40;55.70;;;;;;4883591;29;20407;-79
2023/05/26 02:33:47;;;;;;;87.35;7.07;;;12.30;59.00;;;;;;4883030;29;20914;-79
2023/05/26 02:36:14;;;;;;;82.10;6.23;;;12.30;62.30;;;;;;4883556;29;20244;-79
2023/05/26 02:38:40;;;;;;;78.18;6.25;;;12.30;60.50;;;;;;4882099;29;20205;-79
2023/05/26 02:41:07;;;;;;;81.93;8.17;;;12.20;60.40;;;;;;4883395;29;20218;-79
2023/05/26 02:43:33;;;;;;;84.03;6.50;;;12.10;68.60;;;;;;4883784;29;20403;-79
2023/05/26 02:45:59;;;;;;;80.20;6.90;;;12.00;71.10;;;;;;4882007;29;20437;-79
2023/05/26 02:48:25;;;;;;;83.70;6.60;;;11.90;72.80;;;;;;4881850;29;20200;-79
2023/05/26 02:50:51;;;;;;;80.20;7.23;;;11.80;80.00;;;;;;4883083;29;20466;-79
2023/05/26 02:53:17;;;;;;;83.73;6.80;;;11.90;72.80;;;;;;4882036;29;20472;-79
2023/05/26 02:55:44;;;;;;;76.07;6.80;;;11.80;79.50;;;;;;4882881;29;20163;-79
2023/05/26 02:58:11;;;;;;;72.70;7.20;;;11.70;81.90;;;;;;4881321;29;20423;-79
2023/05/26 03:00:36;;;;;;;77.80;7.45;;;11.60;85.90;;;;;;4883018;29;20250;-79
2023/05/26 03:03:02;;;;;;;75.70;7.83;;;11.50;90.30;;;;;;4881702;29;20186;-79
2023/05/26 03:05:28;;;;;;;74.67;7.00;;;11.50;92.40;;;;;;4882812;29;20596;-79
2023/05/26 03:07:53;;;;;;;79.57;5.90;;;11.60;87.30;;;;;;4882725;29;20281;-79
2023/05/26 03:10:19;;;;;;;86.57;6.90;;;11.70;82.20;;;;;;4882452;29;20171;-79
2023/05/26 03:12:45;;;;;;;77.73;7.67;;;11.60;84.70;;;;;;4883149;29;20653;-79
2023/05/26 03:15:11;;;;;;;81.63;7.50;;;11.50;90.70;;;;;;4882482;29;20512;-79
2023/05/26 03:17:37;;;;;;;81.85;7.55;;;11.30;93.20;;;;;;4882541;29;20198;-79
2023/05/26 03:20:04;;;;;;;83.57;11.20;;;11.20;95.00;;;;;;4882451;29;20549;-79
2023/05/26 03:22:30;;;;;;;77.90;10.80;;;11.10;98.80;;;;;;4882352;29;20418;-79
2023/05/26 03:24:55;;;;;;;76.00;9.80;;;11.20;98.10;;;;;;4882644;29;20174;-79
2023/05/26 03:27:24;;;;;;;77.27;9.60;;;11.10;98.10;;;;;;4882140;29;21017;-79
2023/05/26 03:29:50;;;;;;;83.38;9.57;;;11.10;99.90;;;;;;4882543;29;20231;-79
2023/05/26 03:32:16;;;;;;;83.20;9.40;;;11.10;99.90;;;;;;4882247;29;20174;-79
2023/05/26 03:34:41;;;;;;;82.20;9.80;;;11.20;97.90;;;;;;4882282;29;20163;-79
2023/05/26 03:37:07;;;;;;;92.63;11.17;;;11.10;96.30;;;;;;4882452;29;20845;-79
2023/05/26 03:39:33;;;;;;;78.00;9.57;;;11.00;98.30;;;;;;4882098;29;21088;-79
2023/05/26 03:42:00;;;;;;;82.15;9.52;;;11.00;99.70;;;;;;4882572;29;20194;-79
2023/05/26 03:44:26;;;;;;;81.25;8.77;;;11.00;99.90;;;;;;4882585;29;20658;-79
2023/05/26 03:46:52;;;;;;;93.97;9.68;;;11.20;98.10;;;;;;4882062;29;20202;-79
2023/05/26 03:49:17;;;;;;;86.43;9.50;;;11.20;95.30;;;;;;4880960;29;20539;-79
2023/05/26 03:51:43;;;;;;;79.50;8.27;;;11.00;97.00;;;;;;4880804;29;20180;-79
2023/05/26 03:54:09;;;;;;;78.10;9.27;;;11.20;96.60;;;;;;4882130;29;20162;-79
2023/05/26 03:56:35;;;;;;;79.30;8.47;;;11.30;93.00;;;;;;4881972;29;20198;-79
2023/05/26 03:59:02;;;;;;;89.40;10.68;;;11.30;92.20;;;;;;4882196;29;20173;-79
2023/05/26 04:01:28;;;;;;;76.47;8.90;;;11.10;93.60;;;;;;4881876;29;20631;-79
2023/05/26 04:03:54;;;;;;;81.63;9.70;;;11.10;95.80;;;;;;4882094;29;20419;-79
2023/05/26 04:06:20;;;;;;;75.43;9.40;;;11.10;97.40;;;;;;4880560;29;20213;-79
2023/05/26 04:08:48;;;;;;;83.93;8.43;;;11.10;97.70;;;;;;4882524;29;20238;-79
2023/05/26 04:11:17;;;;;;;74.78;7.97;;;11.20;95.10;;;;;;4882100;29;20452;-79
2023/05/26 04:13:44;;;;;;;83.85;8.27;;;11.30;91.60;;;;;;4881728;29;20178;-79
2023/05/26 04:16:10;;;;;;;84.82;7.60;;;11.40;91.80;;;;;;4881991;29;20712;-79
2023/05/26 04:18:36;;;;;;;77.67;7.37;;;11.40;90.20;;;;;;4880118;29;20210;-79
2023/05/26 04:21:03;;;;;;;90.07;8.43;;;11.40;89.90;;;;;;4880760;29;20707;-79
2023/05/26 04:23:29;;;;;;;76.70;7.88;;;11.40;90.80;;;;;;4882155;29;20627;-79
2023/05/26 04:25:57;;;;;;;77.50;7.83;;;11.50;88.30;;;;;;4881048;29;20173;-79
2023/05/26 04:28:24;;;;;;;77.40;6.72;;;11.50;87.50;;;;;;4882060;29;20349;-79
2023/05/26 04:30:50;;;;;;;80.20;7.65;;;11.60;82.30;;;;;;4882238;29;20175;-79
2023/05/26 04:33:15;;;;;;;79.33;6.80;;;11.60;79.70;;;;;;4881945;29;20627;-79
2023/05/26 04:35:44;;;;;;;79.93;8.00;;;11.50;85.10;;;;;;4880285;29;20446;-79
2023/05/26 04:38:12;;;;;;;79.40;8.52;;;11.50;87.90;;;;;;4881661;29;20170;-79
2023/05/26 04:40:39;;;;;;;83.35;8.48;;;11.50;89.10;;;;;;4881405;29;20179;-79
2023/05/26 04:43:05;;;;;;;79.47;8.18;;;11.60;91.70;;;;;;4881650;29;20643;-79
2023/05/26 04:45:31;;;;;;;83.53;8.73;;;11.70;91.50;;;;;;4881918;29;20194;-79
2023/05/26 04:47:57;;;;;;;84.57;7.17;;;11.80;85.80;;;;;;4881595;29;20205;-79
2023/05/26 04:50:24;;;;;;;85.82;6.55;;;12.00;84.40;;;;;;4880493;29;20177;-79
2023/05/26 04:52:50;;;;;;;86.13;7.37;;;12.00;79.70;;;;;;4882118;29;20167;-79
2023/05/26 04:55:16;;;;;;;81.27;7.67;;;12.00;78.80;;;;;;4880575;29;20411;-79
2023/05/26 04:57:43;;;;;;;77.23;7.30;;;12.10;82.70;;;;;;4881392;29;20431;-79
2023/05/26 05:00:10;;;;;;;75.05;5.53;;;12.30;72.20;;;;;;4881168;29;20174;-79
2023/05/26 05:02:36;;;;;;;82.95;6.25;;;12.20;68.00;;;;;;4881405;29;20198;-79
2023/05/26 05:05:03;;;;;;;81.87;8.10;;;12.20;69.50;;;;;;4881437;29;20195;-79
2023/05/26 05:07:28;;;;;;;82.23;7.30;;;12.20;67.80;;;;;;4881361;29;20458;-79
2023/05/26 05:09:54;;;;;;;80.70;8.80;;;12.20;66.90;;;;;;4881464;29;20399;-79
2023/05/26 05:12:20;;;;;;;85.30;10.60;;;12.20;65.70;;;;;;4881776;29;20411;-79
2023/05/26 05:14:46;;;;;;;83.38;7.65;;;12.20;63.30;;;;;;4879547;29;20174;-79
2023/05/26 05:17:12;;;;;;;93.83;9.67;;;12.10;64.90;;;;;;4881335;29;20201;-79
2023/05/26 05:19:38;;;;;;;83.40;7.67;;;12.10;69.90;;;;;;4881348;29;20596;-79
2023/05/26 05:22:03;;;;;;;81.93;8.00;;;12.10;67.30;;;;;;4880499;29;20174;-79
2023/05/26 05:24:29;;;;;;;76.10;6.90;;;12.20;69.10;;;;;;4879497;29;20178;-79
2023/05/26 05:26:55;;;;;;;87.70;8.60;;;12.30;65.70;;;;;;4880754;29;20202;-79
2023/05/26 05:29:20;;;;;;;84.87;8.07;;;12.30;64.00;;;;;;4880765;29;20178;-79
2023/05/26 05:31:46;;;;;;;82.97;8.57;;;12.30;63.30;;;;;;4880565;29;20238;-79
2023/05/26 05:34:12;;;;;;;82.00;8.50;;;12.30;62.90;;;;;;4881871;29;20638;-79
2023/05/26 05:36:37;;;;;;;87.00;9.50;;;12.30;59.40;;;;;;4884122;29;20195;-79
2023/05/26 05:39:03;;;;;;;79.07;8.40;;;12.30;65.20;;;;;;4882902;29;20182;-79
2023/05/26 05:41:29;;;;;;;81.20;8.60;;;12.40;59.00;;;;;;4883865;29;20198;-79
2023/05/26 05:43:56;;;;;;;85.90;9.60;;;12.30;63.10;;;;;;4884410;29;20181;-79
2023/05/26 05:46:24;;;;;;;85.20;10.00;;;12.30;67.30;;;;;;4882280;29;20206;-79
2023/05/26 05:48:49;;;;;;;84.72;8.63;;;12.30;68.80;;;;;;4884130;29;20175;-79
2023/05/26 05:51:15;;;;;;;79.60;9.73;;;12.30;64.70;;;;;;4883818;29;20163;-79
2023/05/26 05:53:41;;;;;;;85.40;10.97;;;12.30;65.10;;;;;;4883340;29;20257;-79
2023/05/26 05:56:06;;;;;;;86.50;10.10;;;12.20;67.90;;;;;;4883654;29;20194;-79
2023/05/26 05:58:32;;;;;;;92.00;9.83;;;12.20;68.70;;;;;;4884167;29;20191;-79
2023/05/26 06:00:58;;;;;;;87.73;10.57;;;12.20;71.80;;;;;;4883902;29;20659;-79
2023/05/26 06:03:25;;;;;;;84.33;9.63;;;12.30;72.10;;;;;;4883974;29;20178;-79
2023/05/26 06:05:50;;;;;;;86.63;9.93;;;12.40;70.20;;;;;;4883805;29;20166;-79
2023/05/26 06:08:16;;;;;;;90.37;9.90;;;12.40;72.10;;;;;;4883929;29;20390;-79
2023/05/26 06:10:43;;;;;;;101.27;10.67;;;12.50;64.00;;;;;;4882489;29;20179;-79
2023/05/26 06:13:09;;;;;;;93.57;10.68;;;12.50;60.90;;;;;;4883403;29;20538;-79
2023/05/26 06:15:35;;;;;;;87.60;9.60;;;12.50;61.80;;;;;;4883702;29;20224;-79
2023/05/26 06:18:00;;;;;;;82.57;9.43;;;12.50;62.50;;;;;;4883251;29;20439;-79
2023/05/26 06:20:26;;;;;;;90.10;11.17;;;12.60;60.50;;;;;;4882146;29;20207;-79
2023/05/26 06:22:51;;;;;;;84.10;10.50;;;12.50;54.90;;;;;;4882399;29;20292;-79
2023/05/26 06:25:17;;;;;;;85.13;9.60;;;12.50;61.20;;;;;;4884024;29;20639;-79
2023/05/26 06:27:43;;;;;;;91.57;10.97;;;12.60;66.80;;;;;;4884512;29;20616;-81
2023/05/26 06:30:09;;;;;;;86.57;12.00;;;12.70;58.60;;;;;;4883383;29;20167;-81
2023/05/26 06:32:35;;;;;;;92.83;11.33;;;12.70;63.00;;;;;;4884893;29;20201;-81
2023/05/26 06:35:01;;;;;;;94.30;10.80;;;12.70;55.90;;;;;;4885624;29;20411;-81
2023/05/26 06:37:26;;;;;;;83.03;10.07;;;12.80;56.40;;;;;;4882796;29;20671;-81
2023/05/26 06:39:52;;;;;;;91.47;11.00;;;12.90;55.60;;;;;;4884307;29;20558;-81
2023/05/26 06:42:17;;;;;;;84.10;9.87;;;12.80;55.20;;;;;;4884854;29;20651;-81
2023/05/26 06:44:43;;;;;;;100.03;11.17;;;12.80;55.80;;;;;;4882454;29;20174;-81
2023/05/26 06:47:09;;;;;;;87.30;10.53;;;12.90;52.70;;;;;;4883527;29;20201;-80
2023/05/26 06:49:35;;;;;;;102.03;11.83;;;13.00;50.90;;;;;;4883637;29;20682;-80
2023/05/26 06:52:01;;;;;;;87.23;13.43;;;13.10;52.10;;;;;;4883350;29;20427;-80
2023/05/26 06:54:26;;;;;;;91.50;11.67;;;13.10;48.40;;;;;;4883293;29;20623;-80
2023/05/26 06:56:52;;;;;;;92.30;12.03;;;13.20;47.70;;;;;;4881786;29;20198;-80
2023/05/26 06:59:18;;;;;;;87.60;12.43;;;13.20;49.40;;;;;;4882028;29;20181;-80
2023/05/26 07:01:43;;;;;;;83.33;11.47;;;13.30;50.10;;;;;;4881806;29;20186;-80
2023/05/26 07:04:09;;;;;;;89.20;10.40;;;13.40;50.10;;;;;;4883497;29;20257;-80
2023/05/26 07:06:35;;;;;;;87.47;13.77;;;13.40;50.60;;;;;;4881445;29;20206;-80
2023/05/26 07:09:01;;;;;;;89.03;11.40;;;13.40;51.30;;;;;;4883008;29;20551;-80
2023/05/26 07:11:26;;;;;;;81.60;10.53;;;13.60;55.80;;;;;;4883065;29;20163;-80
2023/05/26 07:13:52;;;;;;;87.10;13.33;;;13.60;43.60;;;;;;4882680;29;20204;-80
2023/05/26 07:16:18;;;;;;;90.47;13.10;;;13.60;38.00;;;;;;4881205;29;20195;-80
2023/05/26 07:18:43;;;;;;;90.60;11.90;;;13.60;42.80;;;;;;4882823;29;20195;-80
2023/05/26 07:21:09;;;;;;;81.40;11.63;;;13.50;42.50;;;;;;4882714;29;20233;-80
2023/05/26 07:23:35;;;;;;;80.00;11.07;;;13.60;43.30;;;;;;4882260;29;20234;-80
2023/05/26 07:26:00;;;;;;;98.17;12.53;;;13.50;45.50;;;;;;4881213;29;20623;-80
2023/05/26 07:28:26;;;;;;;87.43;12.13;;;13.50;48.10;;;;;;4882262;29;20173;-80
2023/05/26 07:30:52;;;;;;;99.10;12.07;;;13.60;47.80;;;;;;4882599;29;20508;-80
2023/05/26 07:33:18;;;;;;;86.50;13.13;;;13.70;51.70;;;;;;4882464;29;20162;-80
2023/05/26 07:35:43;;;;;;;83.53;11.30;;;13.70;47.40;;;;;;4880485;29;20415;-80
2023/05/26 07:38:09;;;;;;;89.70;10.57;;;13.70;46.30;;;;;;4882176;29;20664;-79
2023/05/26 07:40:35;;;;;;;86.83;12.07;;;13.60;45.90;;;;;;4882088;29;20666;-80
2023/05/26 07:43:02;;;;;;;85.10;12.03;;;13.60;49.90;;;;;;4882257;29;20178;-80
2023/05/26 07:45:28;;;;;;;89.73;11.73;;;13.70;48.20;;;;;;4882578;29;20744;-80
2023/05/26 07:47:53;;;;;;;99.80;11.90;;;13.80;41.00;;;;;;4882259;29;20450;-80
2023/05/26 07:50:19;;;;;;;95.17;12.60;;;13.80;47.10;;;;;;4882217;29;20572;-80
2023/05/26 07:52:45;;;;;;;89.23;12.40;;;13.80;44.90;;;;;;4882676;29;20167;-80
2023/05/26 07:55:11;;;;;;;91.00;10.93;;;13.80;46.10;;;;;;4880467;29;20427;-79
2023/05/26 07:57:37;;;;;;;94.60;12.23;;;13.80;41.20;;;;;;4881971;29;20255;-80
2023/05/26 08:00:03;;;;;;;95.67;13.40;;;13.80;41.40;;;;;;4880727;29;20183;-79
2023/05/26 08:02:29;;;;;;;82.47;11.60;;;13.90;43.50;;;;;;4882407;29;20250;-80
2023/05/26 08:04:55;;;;;;;88.50;12.50;;;13.90;39.20;;;;;;4881977;29;20411;-80
2023/05/26 08:07:21;;;;;;;94.97;12.97;;;14.00;43.90;;;;;;4881811;29;20538;-80
2023/05/26 08:09:46;;;;;;;87.77;10.60;;;14.10;43.90;;;;;;4881564;29;20411;-80
2023/05/26 08:12:12;;;;;;;90.77;11.43;;;14.20;38.10;;;;;;4881867;29;20407;-79
2023/05/26 08:14:38;;;;;;;91.97;10.60;;;14.30;35.90;;;;;;4881522;29;20162;-80
2023/05/26 08:17:04;;;;;;;86.50;10.93;;;14.20;35.40;;;;;;4880680;29;20470;-80
2023/05/26 08:19:29;;;;;;;81.17;9.90;;;14.20;34.70;;;;;;4882357;29;20554;-80
2023/05/26 08:21:58;;;;;;;85.23;10.83;;;14.30;36.30;;;;;;4881953;29;20242;-80
2023/05/26 08:24:25;;;;;;;87.47;11.47;;;14.30;34.00;;;;;;4882010;29;20523;-80
2023/05/26 08:26:51;;;;;;;97.10;12.50;;;14.40;32.00;;;;;;4880826;29;20535;-80
2023/05/26 08:29:17;;;;;;;101.03;13.00;;;14.30;34.00;;;;;;4881973;29;20411;-80
2023/05/26 08:31:43;;;;;;;91.43;10.43;;;14.50;32.30;;;;;;4881623;29;20167;-80
2023/05/26 08:34:08;;;;;;;96.70;10.67;;;14.50;29.70;;;;;;4881791;29;21099;-80
2023/05/26 08:36:35;;;;;;;92.40;11.90;;;14.60;27.80;;;;;;4880267;29;20194;-80
2023/05/26 08:39:01;;;;;;;85.73;11.63;;;14.70;27.10;;;;;;4882388;29;20168;-80
2023/05/26 08:41:35;;;;;;;79.90;11.30;;;14.70;24.00;;;;;;4881618;29;20455;-80
2023/05/26 08:44:04;;;;;;;86.03;10.00;;;14.70;27.40;;;;;;4882094;29;20752;-80
2023/05/26 08:46:32;;;;;;;94.30;13.27;;;14.70;25.10;;;;;;4881756;29;20455;-80
2023/05/26 08:48:58;;;;;;;92.83;11.50;;;14.80;20.60;;;;;;4881819;29;20497;-80
2023/05/26 08:51:24;;;;;;;90.70;13.13;;;14.80;25.00;;;;;;4881433;29;20435;-80
2023/05/26 08:53:50;;;;;;;82.30;11.63;;;14.80;19.80;;;;;;4880141;29;20781;-80
2023/05/26 08:56:16;;;;;;;87.97;13.87;;;14.80;20.30;;;;;;4880004;29;20199;-80
2023/05/26 08:58:47;;;;;;;85.97;12.23;;;14.90;20.70;;;;;;4881728;29;20963;-79
2023/05/26 09:01:13;;;;;;;93.97;13.40;;;15.00;21.50;;;;;;4881352;29;20392;-80
2023/05/26 09:03:38;;;;;;;90.10;9.83;;;15.10;20.60;;;;;;4881503;29;20422;-80
2023/05/26 09:06:04;;;;;;;89.27;13.17;;;15.10;22.00;;;;;;4881302;29;20195;-81
2023/05/26 09:08:31;;;;;;;90.57;14.13;;;15.30;19.60;;;;;;4885678;29;20191;-81
2023/05/26 09:10:57;;;;;;;93.60;12.30;;;15.40;9.80;;;;;;4884588;29;20185;-81
2023/05/26 09:13:23;;;;;;;77.17;13.40;;;15.40;11.70;;;;;;4885382;29;20410;-80
2023/05/26 09:15:52;;;;;;;87.33;12.50;;;15.50;7.00;;;;;;4884983;29;20182;-80
2023/05/26 09:18:18;;;;;;;88.80;11.80;;;15.60;4.40;;;;;;4885143;29;20426;-80
2023/05/26 09:20:46;;;;;;;86.73;12.27;;;15.60;4.80;;;;;;4883729;29;20430;-80
2023/05/26 09:23:14;;;;;;;86.80;13.60;;;15.70;10.00;;;;;;4884887;29;20436;-80
2023/05/26 09:25:42;;;;;;;83.97;12.83;;;15.90;11.60;;;;;;4884774;29;20492;-80
2023/05/26 09:28:09;;;;;;;84.90;10.97;;;16.00;1.00;;;;;;4884871;29;20965;-79
2023/05/26 09:30:39;;;;;;;88.93;11.60;;;16.10;2.40;;;;;;4884823;29;20412;-80
2023/05/26 09:33:10;;;;;;;89.10;13.00;;;16.20;1.00;;;;;;4883523;29;20504;-80
2023/05/26 09:35:37;;;;;;;91.20;12.73;;;16.30;1.00;;;;;;4884837;29;20402;-79
2023/05/26 09:38:08;;;;;;;94.90;12.70;;;16.50;1.00;;;;;;4883408;29;20431;-80
2023/05/26 09:43:15;;;;;;;88.00;14.40;;;16.50;1.00;;;;;;4873617;29;20476;-83
2023/05/26 09:46:13;;;;;;;90.50;13.33;;;16.60;1.00;;;;;;4875717;29;20406;-83
2023/05/26 09:49:25;;;;;;;87.93;14.97;;;16.70;1.00;;;;;;4874410;29;20430;-83
2023/05/26 09:52:29;;;;;;;90.83;13.47;;;17.00;1.00;;;;;;4846012;29;20458;-83
2023/05/26 09:55:21;;;;;;;86.47;13.30;;;17.30;1.00;;;;;;4866704;29;20418;-83
2023/05/26 09:58:29;;;;;;;81.87;12.10;;;17.40;1.00;;;;;;4847285;29;20436;-83
2023/05/26 10:01:29;;;;;;;81.77;11.70;;;17.50;1.00;;;;;;4869682;29;20420;-83
2023/05/26 10:04:36;;;;;;;;;;;;;;;;;;;;;
2023/05/26 10:07:21;;;;;;;85.47;12.03;;;17.70;1.00;;;;;;4874993;29;20572;-83
2023/05/26 10:10:08;;;;;;;85.87;10.87;;;17.80;1.00;;;;;;4874091;29;20393;-83
2023/05/26 10:12:54;;;;;;;83.87;9.73;;;18.00;1.00;;;;;;4875639;29;20400;-83
2023/05/26 10:15:52;;;;;;;87.67;8.70;;;18.00;1.00;;;;;;4874442;29;20428;-83
2023/05/26 10:18:26;;;;;;;89.97;10.20;;;18.30;1.00;;;;;;4873498;29;20476;-83
2023/05/26 10:21:12;;;;;;;79.87;8.30;;;18.40;1.00;;;;;;4872381;29;20488;-83
2023/05/26 10:23:51;;;;;;;82.37;8.33;;;18.60;1.00;;;;;;4870408;29;20448;-82
2023/05/26 10:26:52;;;;;;;83.50;10.47;;;18.50;1.00;;;;;;4870512;29;20459;-83
2023/05/26 10:29:41;;;;;;;86.50;9.17;;;18.60;1.00;;;;;;4873912;29;20423;-83
2023/05/26 10:33:31;;;;;;;91.87;11.20;;;18.90;1.00;;;;;;4853826;29;20523;-83
2023/05/26 10:35:54;;;;;;;88.20;11.33;;;19.20;1.00;;;;;;4860741;29;20411;-85
2023/05/26 10:38:35;;;;;;;;;;;;;;;;;;;;;
2023/05/26 10:41:21;;;;;;;;;;;;;;;;;;;;;
2023/05/26 10:47:25;;;;;;;82.17;11.47;;;19.40;1.00;;;;;;4866637;29;20463;-83
2023/05/26 10:50:01;;;;;;;90.23;15.40;;;19.80;1.00;;;;;;4876548;29;20396;-84
2023/05/26 10:56:42;;;;;;;86.47;13.37;;;20.00;1.00;;;;;;4832822;29;20441;-83
2023/05/26 10:59:30;;;;;;;82.23;13.03;;;19.60;1.00;;;;;;4830949;29;20422;-83
2023/05/26 11:02:43;;;;;;;83.60;14.13;;;19.40;1.00;;;;;;4873210;29;20384;-83
2023/05/26 11:05:59;;;;;;;89.40;14.57;;;19.60;1.00;;;;;;4818039;29;20450;-83
2023/05/26 11:08:52;;;;;;;88.23;14.87;;;19.60;1.00;;;;;;4817002;29;20960;-83
2023/05/26 11:11:51;;;;;;;83.37;15.93;;;20.00;1.00;;;;;;4872217;29;20420;-83
2023/05/26 11:14:33;;;;;;;83.47;14.03;;;20.10;1.00;;;;;;4873043;29;20409;-82
2023/05/26 11:17:20;;;;;;;83.20;14.00;;;20.40;1.00;;;;;;4872435;29;20464;-83
2023/05/26 11:19:56;;;;;;;84.83;12.10;;;20.40;1.00;;;;;;4872326;29;20421;-83
2023/05/26 11:26:21;;;;;;;81.50;11.73;;;20.30;1.00;;;;;;4874722;29;20415;-83
2023/05/26 11:29:13;;;;;;;90.10;11.17;;;20.50;1.00;;;;;;4874439;29;20424;-84
2023/05/26 11:31:41;;;;;;;85.27;10.67;;;20.70;1.00;;;;;;4871207;29;20484;-83
2023/05/26 11:34:21;;;;;;;85.10;10.80;;;20.50;1.00;;;;;;4871410;29;20544;-82
2023/05/26 11:40:56;;;;;;;85.20;11.57;;;20.30;1.00;;;;;;4833188;29;20496;-83
2023/05/26 11:43:42;;;;;;;84.53;11.27;;;20.00;1.00;;;;;;4840252;29;20438;-83
2023/05/26 11:46:54;;;;;;;;;;;;;;;;;;;;;
2023/05/26 11:56:36;;;;;;;86.87;8.77;;;20.90;1.00;;;;;;4865102;29;20444;-83
2023/05/26 11:59:15;;;;;;;79.60;9.17;;;21.60;1.00;;;;;;4871196;29;20916;-82
2023/05/26 12:01:59;;;;;;;86.33;10.70;;;22.20;1.00;;;;;;4870138;29;20393;-83
2023/05/26 12:04:33;;;;;;;81.93;8.77;;;21.90;1.00;;;;;;4869989;29;20924;-82
2023/05/26 12:07:10;;;;;;;77.50;8.90;;;21.60;1.00;;;;;;4871056;29;20466;-82
2023/05/26 12:09:53;;;;;;;78.90;8.10;;;21.30;1.00;;;;;;4871975;29;20426;-83
2023/05/26 12:12:28;;;;;;;88.30;9.47;;;21.00;1.00;;;;;;4873912;29;20393;-82
2023/05/26 12:15:06;;;;;;;77.97;9.30;;;21.10;1.00;;;;;;4871439;29;20415;-82
2023/05/26 12:30:40;;;;;;;79.00;8.70;;;22.00;1.00;;;;;;4887736;29;20923;-83
2023/05/26 12:33:51;;;;;;;89.73;8.90;;;22.00;1.00;;;;;;4888163;29;20463;-82
2023/05/26 12:36:20;;;;;;;84.47;9.57;;;22.00;1.00;;;;;;4832552;29;20433;-82
2023/05/26 12:38:54;;;;;;;80.90;9.20;;;22.30;1.00;;;;;;4870405;29;20448;-83
2023/05/26 12:45:12;;;;;;;85.83;7.70;;;22.30;1.00;;;;;;4858567;29;20444;-83
2023/05/26 12:48:12;;;;;;;81.23;9.40;;;22.40;1.00;;;;;;4871816;29;20451;-83
2023/05/26 12:50:48;;;;;;;77.93;7.77;;;22.40;1.00;;;;;;4871738;29;20492;-82
2023/05/26 12:53:19;;;;;;;75.80;8.80;;;22.50;1.00;;;;;;4872557;29;20810;-83
2023/05/26 12:55:45;;;;;;;80.67;8.60;;;22.50;1.00;;;;;;4871009;29;20396;-83
2023/05/26 12:58:30;;;;;;;85.00;9.30;;;22.50;1.00;;;;;;4869265;29;20912;-82
2023/05/26 13:00:59;;;;;;;86.83;11.20;;;22.50;1.00;;;;;;4868436;29;20548;-82
2023/05/26 13:04:35;;;;;;;79.27;8.63;;;22.40;1.00;;;;;;4869319;29;20412;-82
2023/05/26 13:06:36;;;;;;;83.03;8.63;;;22.50;1.00;;;;;;4859723;29;20455;-82
2023/05/26 13:09:19;;;;;;;78.30;9.00;;;22.50;1.00;;;;;;4870228;29;20436;-82
2023/05/26 13:12:02;;;;;;;80.97;8.67;;;22.40;1.00;;;;;;4869153;29;20768;-82
2023/05/26 13:14:41;;;;;;;89.87;11.47;;;22.40;1.00;;;;;;4870004;29;20420;-82
2023/05/26 13:17:46;;;;;;;81.03;9.87;;;22.40;1.00;;;;;;4867500;29;20440;-83
2023/05/26 13:20:39;;;;;;;85.23;9.20;;;22.30;1.00;;;;;;4872076;29;20965;-82
2023/05/26 13:23:26;;;;;;;81.60;9.03;;;22.30;1.00;;;;;;4869801;29;20428;-83
2023/05/26 13:26:38;;;;;;;78.60;8.20;;;22.40;1.00;;;;;;4870359;29;20427;-83
2023/05/26 13:29:13;;;;;;;77.73;9.13;;;22.40;1.00;;;;;;4802276;29;20480;-83
2023/05/26 13:32:17;;;;;;;86.10;8.10;;;22.50;1.00;;;;;;4871621;29;20398;-82
2023/05/26 13:34:47;;;;;;;90.90;10.30;;;22.70;1.00;;;;;;4871396;29;20408;-82
2023/05/26 13:37:13;;;;;;;75.80;7.50;;;22.70;1.00;;;;;;4869936;29;20878;-83
2023/05/26 13:39:53;;;;;;;91.20;9.43;;;22.40;1.00;;;;;;4869598;29;20423;-83